Time;durP1;ratioP1;P1;durP2;ratioP2;P2;SDS_P1;SDS_P2;PMS_P1;PMS_P2;Temp;Humidity;BMP_temperature;BMP_pressure;BME280_temperature;BME280_humidity;BME280_pressure;Samples;Min_cycle;Max_cycle;Signal;HPM_P1;HPM_P2
2021/07/23 00:01:08;;;;;;;43.13;27.35;;;;;;;21.84;72.10;101449.38;5025226;28;20410;-43
2021/07/23 00:03:36;;;;;;;41.05;26.27;;;;;;;21.86;71.60;101446.97;5028962;28;20670;-44
2021/07/23 00:06:03;;;;;;;43.70;28.15;;;;;;;21.90;71.73;101436.47;5028163;28;20124;-42
2021/07/23 00:08:30;;;;;;;38.13;25.33;;;;;;;21.86;71.67;101435.69;5026602;28;20080;-43
2021/07/23 00:10:58;;;;;;;43.17;29.45;;;;;;;21.85;71.68;101436.84;5025743;28;20128;-44
2021/07/23 00:13:25;;;;;;;42.08;30.73;;;;;;;21.86;72.02;101435.69;5026303;28;20057;-44
2021/07/23 00:15:52;;;;;;;39.72;27.83;;;;;;;21.82;71.85;101440.47;5027010;28;20049;-43
2021/07/23 00:18:18;;;;;;;41.15;27.52;;;;;;;21.76;72.24;101436.50;5026786;28;20637;-42
2021/07/23 00:20:46;;;;;;;38.65;27.60;;;;;;;21.77;72.42;101430.44;5026277;28;20065;-42
2021/07/23 00:23:13;;;;;;;43.05;27.80;;;;;;;21.77;72.13;101426.81;5027162;28;20055;-41
2021/07/23 00:25:40;;;;;;;40.95;27.77;;;;;;;21.76;72.34;101431.63;5025568;28;20545;-42
2021/07/23 00:28:06;;;;;;;34.22;24.15;;;;;;;21.77;72.03;101432.44;5024418;28;20452;-43
2021/07/23 00:30:33;;;;;;;37.50;26.42;;;;;;;21.69;72.21;101434.47;5025694;28;20430;-45
2021/07/23 00:33:01;;;;;;;34.22;22.98;;;;;;;21.62;72.45;101431.66;5026470;28;20041;-42
2021/07/23 00:35:28;;;;;;;33.63;22.67;;;;;;;21.67;72.19;101433.25;5025862;28;20053;-44
2021/07/23 00:37:57;;;;;;;30.70;22.10;;;;;;;21.69;72.17;101425.19;5026399;28;20061;-44
2021/07/23 00:40:26;;;;;;;35.45;22.77;;;;;;;21.67;72.34;101427.63;5026266;28;20064;-44
2021/07/23 00:42:53;;;;;;;36.70;24.33;;;;;;;21.67;72.12;101422.81;5024509;28;20052;-43
2021/07/23 00:45:20;;;;;;;33.63;22.90;;;;;;;21.70;72.10;101421.19;5022930;28;20057;-42
2021/07/23 00:48:01;;;;;;;36.20;24.75;;;;;;;21.66;71.81;101418.34;5025784;28;20497;-42
2021/07/23 00:50:32;;;;;;;35.63;24.73;;;;;;;21.71;71.57;101417.94;5025727;28;20046;-43
2021/07/23 00:52:59;;;;;;;34.67;25.60;;;;;;;21.71;71.36;101422.81;5026145;28;20540;-42
2021/07/23 00:55:26;;;;;;;39.20;28.70;;;;;;;21.64;71.98;101412.34;5026750;28;20077;-44
2021/07/23 00:57:55;;;;;;;40.63;26.67;;;;;;;21.56;71.87;101409.91;5024868;28;20148;-43
2021/07/23 01:00:21;;;;;;;41.47;27.75;;;;;;;21.56;72.36;101404.28;5025469;28;20049;-42
2021/07/23 01:02:49;;;;;;;35.97;25.83;;;;;;;21.54;71.99;101406.72;5006946;28;20061;-48
2021/07/23 01:05:16;;;;;;;42.15;28.13;;;;;;;21.59;72.04;101401.47;5025964;28;20061;-52
2021/07/23 01:07:44;;;;;;;41.38;29.35;;;;;;;21.59;71.70;101403.47;5025219;28;20046;-43
2021/07/23 01:10:11;;;;;;;40.30;27.05;;;;;;;21.56;71.81;101393.00;5025769;28;20065;-44
2021/07/23 01:12:38;;;;;;;33.33;25.02;;;;;;;21.53;72.34;101391.00;5025585;28;20676;-43
2021/07/23 01:15:06;;;;;;;38.80;25.35;;;;;;;21.59;71.72;101398.66;5026013;28;20063;-51
2021/07/23 01:17:33;;;;;;;34.45;23.33;;;;;;;21.61;71.77;101395.41;5024471;28;20156;-42
2021/07/23 01:20:24;;;;;;;34.65;23.55;;;;;;;21.56;71.78;101393.00;5026053;28;20068;-42
2021/07/23 01:22:54;;;;;;;28.77;21.00;;;;;;;21.59;71.62;101392.22;5025102;28;20050;-43
2021/07/23 01:25:22;;;;;;;33.40;22.48;;;;;;;21.55;71.55;101391.41;5021725;28;20041;-42
2021/07/23 01:27:51;;;;;;;34.63;22.25;;;;;;;21.50;71.38;101383.38;5024399;28;20067;-46
2021/07/23 01:30:21;;;;;;;28.25;20.63;;;;;;;21.45;71.50;101383.75;5023356;28;20067;-41
2021/07/23 01:32:49;;;;;;;36.45;22.35;;;;;;;21.40;71.79;101384.16;5023797;28;20124;-43
2021/07/23 01:35:16;;;;;;;31.45;20.38;;;;;;;21.38;71.91;101375.31;5025372;28;20414;-43
2021/07/23 01:37:45;;;;;;;26.90;20.48;;;;;;;21.34;71.65;101377.34;5020013;28;20045;-43
2021/07/23 01:40:14;;;;;;;27.60;19.30;;;;;;;21.28;71.62;101373.31;5024430;28;20054;-45
2021/07/23 01:42:45;;;;;;;27.90;19.52;;;;;;;21.26;72.07;101373.72;5025555;28;20049;-43
2021/07/23 01:45:13;;;;;;;21.77;16.20;;;;;;;21.19;72.09;101374.53;5025233;28;20148;-43
2021/07/23 01:47:39;;;;;;;26.63;16.75;;;;;;;21.19;71.96;101379.34;5028358;28;20053;-42
2021/07/23 01:50:07;;;;;;;21.83;18.08;;;;;;;21.16;71.92;101366.88;5029176;28;20058;-43
2021/07/23 01:52:34;;;;;;;25.13;16.10;;;;;;;21.14;71.85;101366.50;5029369;28;20063;-45
2021/07/23 01:55:02;;;;;;;28.27;20.27;;;;;;;21.16;71.86;101364.06;5029428;28;20647;-43
2021/07/23 01:57:29;;;;;;;25.15;18.17;;;;;;;21.15;71.82;101365.25;5028585;28;20053;-44
2021/07/23 01:59:56;;;;;;;25.58;18.02;;;;;;;21.10;72.02;101360.03;5029630;28;20053;-43
2021/07/23 02:02:23;;;;;;;24.40;17.83;;;;;;;21.13;71.65;101359.22;5010609;28;20141;-43
2021/07/23 02:04:50;;;;;;;23.42;15.82;;;;;;;21.09;71.53;101361.25;5028801;28;20047;-42
2021/07/23 02:07:16;;;;;;;22.52;15.70;;;;;;;21.13;71.25;101364.88;5027245;28;20049;-44
2021/07/23 02:09:44;;;;;;;24.40;16.25;;;;;;;21.14;71.04;101360.84;5029214;28;20071;-44
2021/07/23 02:12:11;;;;;;;21.38;15.82;;;;;;;21.08;71.18;101356.81;5029005;28;20046;-46
2021/07/23 02:14:38;;;;;;;21.08;15.65;;;;;;;21.07;71.15;101360.06;5029249;28;20058;-42
2021/07/23 02:17:05;;;;;;;22.55;15.98;;;;;;;21.01;71.51;101365.25;5027315;28;20095;-43
2021/07/23 02:19:32;;;;;;;19.20;14.45;;;;;;;20.96;71.52;101362.84;5028685;28;20055;-44
2021/07/23 02:21:59;;;;;;;21.63;15.88;;;;;;;20.98;71.44;101360.41;5023996;28;20451;-42
2021/07/23 02:24:26;;;;;;;21.67;17.08;;;;;;;20.95;71.45;101361.22;5018985;28;20111;-46
2021/07/23 02:26:54;;;;;;;24.50;16.08;;;;;;;20.91;71.44;101356.78;5026811;28;20049;-47
2021/07/23 02:29:21;;;;;;;22.70;15.75;;;;;;;20.88;71.57;101341.50;5029567;28;20061;-46
2021/07/23 02:31:47;;;;;;;21.75;16.40;;;;;;;20.87;71.73;101351.16;5028086;28;20152;-43
2021/07/23 02:34:14;;;;;;;21.52;14.18;;;;;;;20.86;71.41;101341.13;5029271;28;20128;-51
2021/07/23 02:36:41;;;;;;;23.55;16.70;;;;;;;20.88;71.19;101347.13;5027274;28;20054;-46
2021/07/23 02:39:08;;;;;;;22.83;16.10;;;;;;;20.86;71.53;101343.94;5009951;28;20055;-43
2021/07/23 02:41:35;;;;;;;17.75;13.55;;;;;;;20.83;71.32;101344.72;5025947;28;20046;-43
2021/07/23 02:44:02;;;;;;;21.48;15.85;;;;;;;20.79;71.30;101335.47;5027901;28;20409;-44
2021/07/23 02:46:29;;;;;;;20.70;14.57;;;;;;;20.77;71.45;101337.88;5027998;28;20060;-43
2021/07/23 02:48:56;;;;;;;19.40;14.50;;;;;;;20.76;71.87;101332.66;5028691;28;20069;-41
2021/07/23 02:51:23;;;;;;;19.73;14.23;;;;;;;20.72;71.84;101327.03;5028303;28;20057;-43
2021/07/23 02:53:50;;;;;;;21.10;13.88;;;;;;;20.71;71.65;101319.78;5026934;28;20060;-43
2021/07/23 02:56:18;;;;;;;20.80;13.88;;;;;;;20.70;71.65;101323.81;5027399;28;20046;-43
2021/07/23 02:58:46;;;;;;;19.35;14.25;;;;;;;20.69;71.50;101318.56;5023068;28;20069;-43
2021/07/23 03:01:13;;;;;;;23.02;14.35;;;;;;;20.68;71.84;101314.94;5028071;28;20061;-42
2021/07/23 03:03:41;;;;;;;21.65;14.68;;;;;;;20.71;71.90;101311.31;5028337;28;20057;-45
2021/07/23 03:06:07;;;;;;;19.77;14.30;;;;;;;20.69;71.84;101315.75;5027508;28;20049;-43
2021/07/23 03:08:35;;;;;;;21.80;15.18;;;;;;;20.69;71.80;101308.13;5027158;28;20092;-42
2021/07/23 03:11:04;;;;;;;23.88;14.30;;;;;;;20.70;72.09;101306.94;5027095;28;20056;-43
2021/07/23 03:13:31;;;;;;;20.48;14.45;;;;;;;20.73;72.04;101311.72;5027876;28;20060;-43
2021/07/23 03:15:58;;;;;;;20.15;15.00;;;;;;;20.72;72.48;101298.88;5028527;28;20045;-44
2021/07/23 03:18:25;;;;;;;17.92;13.35;;;;;;;20.70;72.56;101306.94;5027461;28;20061;-43
2021/07/23 03:20:51;;;;;;;19.67;14.10;;;;;;;20.69;72.27;101293.25;5028514;28;20080;-42
2021/07/23 03:23:19;;;;;;;17.38;13.00;;;;;;;20.67;72.85;101290.84;5028162;28;20053;-43
2021/07/23 03:25:46;;;;;;;17.45;12.13;;;;;;;20.67;72.50;101290.03;5028156;28;20065;-44
2021/07/23 03:28:13;;;;;;;14.80;11.80;;;;;;;20.68;72.66;101291.66;5009913;28;20046;-43
2021/07/23 03:30:39;;;;;;;15.85;11.70;;;;;;;20.69;72.48;101279.97;5019248;28;20045;-45
2021/07/23 03:33:06;;;;;;;15.30;11.45;;;;;;;20.69;72.63;101282.78;5027597;28;20065;-43
2021/07/23 03:35:33;;;;;;;15.30;11.90;;;;;;;20.67;72.77;101271.13;5021263;28;20057;-45
2021/07/23 03:38:00;;;;;;;13.82;10.93;;;;;;;20.66;72.76;101286.41;5027033;28;20409;-43
2021/07/23 03:40:26;;;;;;;14.55;10.55;;;;;;;20.69;72.60;101277.16;5028065;28;20136;-44
2021/07/23 03:42:53;;;;;;;15.75;10.50;;;;;;;20.68;72.25;101281.16;5027648;28;20401;-43
2021/07/23 03:45:20;;;;;;;13.82;11.50;;;;;;;20.67;72.46;101270.34;5024665;28;20089;-43
2021/07/23 03:47:47;;;;;;;13.88;10.85;;;;;;;20.65;72.78;101273.56;5025162;28;20155;-43
2021/07/23 03:50:14;;;;;;;17.45;11.82;;;;;;;20.67;72.65;101268.31;5027084;28;20057;-42
2021/07/23 03:52:40;;;;;;;17.90;11.75;;;;;;;20.59;72.45;101267.53;5027532;28;20049;-43
2021/07/23 03:55:10;;;;;;;13.48;10.00;;;;;;;20.62;72.20;101271.53;5027283;28;20502;-42
2021/07/23 03:57:38;;;;;;;14.93;9.05;;;;;;;20.63;72.07;101273.13;5027438;28;20046;-43
2021/07/23 04:00:07;;;;;;;16.83;11.82;;;;;;;20.59;72.29;101272.34;5012024;28;20060;-42
2021/07/23 04:02:35;;;;;;;13.52;10.57;;;;;;;20.57;72.58;101266.31;5026578;28;20068;-43
2021/07/23 04:05:03;;;;;;;13.70;9.98;;;;;;;20.56;72.71;101259.88;5027266;28;20108;-44
2021/07/23 04:07:33;;;;;;;13.10;10.10;;;;;;;20.57;72.57;101263.50;5026191;28;20092;-42
2021/07/23 04:10:01;;;;;;;12.65;9.98;;;;;;;20.56;72.68;101262.69;5026685;28;20051;-44
2021/07/23 04:12:29;;;;;;;15.50;10.55;;;;;;;20.57;72.49;101266.31;5012699;28;20073;-42
2021/07/23 04:14:55;;;;;;;16.80;12.07;;;;;;;20.57;72.83;101255.84;5027270;28;20069;-43
2021/07/23 04:17:22;;;;;;;13.30;10.32;;;;;;;20.55;72.78;101260.25;5026485;28;20053;-43
2021/07/23 04:19:49;;;;;;;14.50;10.57;;;;;;;20.58;72.76;101256.66;5027076;28;20505;-45
2021/07/23 04:22:18;;;;;;;14.55;11.02;;;;;;;20.61;72.64;101253.03;5026666;28;20076;-44
2021/07/23 04:24:45;;;;;;;19.13;12.90;;;;;;;20.62;72.71;101255.44;5027030;28;20049;-43
2021/07/23 04:27:13;;;;;;;14.75;11.07;;;;;;;20.55;72.62;101251.81;5026008;28;20144;-44
2021/07/23 04:29:44;;;;;;;17.10;12.93;;;;;;;20.57;72.53;101252.25;5025978;28;20041;-44
2021/07/23 04:32:11;;;;;;;18.40;13.60;;;;;;;20.55;72.83;101244.19;5026782;28;20079;-46
2021/07/23 04:34:38;;;;;;;20.40;12.90;;;;;;;20.52;73.25;101238.56;5026642;28;20152;-43
2021/07/23 04:37:05;;;;;;;18.73;11.57;;;;;;;20.51;73.07;101243.41;5026121;28;20053;-44
2021/07/23 04:39:31;;;;;;;15.45;11.00;;;;;;;20.53;73.02;101245.81;5026987;28;20057;-48
2021/07/23 04:41:58;;;;;;;15.57;11.43;;;;;;;20.51;73.02;101236.97;5026225;28;20073;-44
2021/07/23 04:44:25;;;;;;;21.42;14.93;;;;;;;20.50;73.07;101238.97;5026329;28;20116;-42
2021/07/23 04:46:52;;;;;;;21.08;13.27;;;;;;;20.48;73.49;101238.56;5025137;28;20062;-43
2021/07/23 04:49:18;;;;;;;23.00;15.23;;;;;;;20.47;73.71;101236.16;5025891;28;20057;-44
2021/07/23 04:51:45;;;;;;;22.33;13.93;;;;;;;20.48;73.50;101238.56;5026448;28;20128;-43
2021/07/23 04:54:12;;;;;;;21.27;13.98;;;;;;;20.51;73.49;101239.78;5022307;28;20081;-42
2021/07/23 04:56:39;;;;;;;20.55;14.07;;;;;;;20.54;73.47;101231.31;5017718;28;20081;-50
2021/07/23 04:59:05;;;;;;;23.23;13.68;;;;;;;20.55;73.18;101229.31;5008579;28;20053;-44
2021/07/23 05:01:34;;;;;;;21.75;13.90;;;;;;;20.55;73.52;101235.75;5026520;28;20060;-45
2021/07/23 05:04:01;;;;;;;22.00;14.15;;;;;;;20.54;73.76;101245.38;5007495;28;20046;-43
2021/07/23 05:06:28;;;;;;;17.25;12.32;;;;;;;20.54;73.74;101238.97;5025493;28;20054;-43
2021/07/23 05:08:55;;;;;;;18.90;10.85;;;;;;;20.52;73.64;101238.56;5025724;28;20063;-43
2021/07/23 05:11:25;;;;;;;18.38;13.40;;;;;;;20.53;74.05;101238.16;5026513;28;20057;-44
2021/07/23 05:13:52;;;;;;;14.77;11.38;;;;;;;20.56;73.81;101233.75;5008633;28;20081;-43
2021/07/23 05:16:19;;;;;;;17.98;10.45;;;;;;;20.60;73.78;101240.97;5025072;28;20053;-45
2021/07/23 05:18:47;;;;;;;20.02;11.00;;;;;;;20.64;73.51;101235.38;5024620;28;20384;-51
2021/07/23 05:21:14;;;;;;;19.25;10.55;;;;;;;20.66;73.49;101230.13;5026071;28;20053;-43
2021/07/23 05:23:42;;;;;;;14.57;10.25;;;;;;;20.69;73.39;101239.78;5025973;28;20061;-44
2021/07/23 05:26:10;;;;;;;16.33;10.45;;;;;;;20.69;73.19;101243.41;5024776;28;20053;-43
2021/07/23 05:28:36;;;;;;;17.25;10.35;;;;;;;20.69;73.52;101232.16;5025525;28;20053;-41
2021/07/23 05:31:06;;;;;;;18.00;9.82;;;;;;;20.73;73.37;101232.94;5025919;28;20053;-44
2021/07/23 05:33:33;;;;;;;15.85;10.50;;;;;;;20.73;73.14;101230.13;5025510;28;20037;-42
2021/07/23 05:35:59;;;;;;;15.68;10.55;;;;;;;20.72;73.11;101236.16;5024173;28;20136;-42
2021/07/23 05:38:26;;;;;;;15.75;10.25;;;;;;;20.72;73.43;101230.53;5023973;28;20115;-44
2021/07/23 05:40:53;;;;;;;14.50;9.35;;;;;;;20.72;73.43;101236.16;5025319;28;20513;-44
2021/07/23 05:43:20;;;;;;;14.13;9.77;;;;;;;20.76;73.32;101245.44;5017609;28;20386;-45
2021/07/23 05:45:47;;;;;;;15.60;10.27;;;;;;;20.78;73.40;101240.19;5012609;28;20156;-45
2021/07/23 05:48:14;;;;;;;15.18;9.60;;;;;;;20.78;73.71;101249.44;5023279;28;21929;-44
2021/07/23 05:50:41;;;;;;;12.38;9.07;;;;;;;20.80;73.58;101243.41;5027297;28;20059;-46
2021/07/23 05:53:07;;;;;;;15.57;10.63;;;;;;;20.81;73.83;101247.84;5029000;28;20159;-45
2021/07/23 05:55:34;;;;;;;16.45;11.18;;;;;;;20.85;73.73;101249.44;5029141;28;20049;-42
2021/07/23 05:58:01;;;;;;;14.77;10.07;;;;;;;20.90;73.50;101239.75;5010062;28;20054;-47
2021/07/23 06:00:28;;;;;;;13.90;9.70;;;;;;;20.95;73.64;101245.78;5027297;28;20138;-42
2021/07/23 06:03:01;;;;;;;16.05;11.40;;;;;;;20.96;74.13;101236.16;5029350;28;20104;-46
2021/07/23 06:05:29;;;;;;;15.18;11.07;;;;;;;21.03;73.63;101243.78;5009072;28;20056;-42
2021/07/23 06:07:56;;;;;;;17.02;10.48;;;;;;;21.08;73.93;101237.75;5025116;28;20049;-43
2021/07/23 06:10:22;;;;;;;15.48;9.90;;;;;;;21.13;73.92;101235.34;5024871;28;20060;-42
2021/07/23 06:12:49;;;;;;;15.90;11.00;;;;;;;21.14;73.85;101231.31;5025143;28;20057;-44
2021/07/23 06:15:16;;;;;;;15.43;10.73;;;;;;;21.20;73.84;101235.34;5021368;28;20054;-42
2021/07/23 06:17:43;;;;;;;17.02;11.15;;;;;;;21.23;73.82;101228.88;5024950;28;20057;-47
2021/07/23 06:20:12;;;;;;;17.15;11.25;;;;;;;21.26;74.19;101226.47;5021602;28;20152;-46
2021/07/23 06:22:38;;;;;;;19.38;11.52;;;;;;;21.29;74.09;101215.19;5024392;28;20068;-44
2021/07/23 06:25:05;;;;;;;18.48;11.30;;;;;;;21.29;73.97;101226.44;5021631;28;20125;-42
2021/07/23 06:27:32;;;;;;;20.80;12.15;;;;;;;21.32;74.42;101236.09;5024298;28;20064;-42
2021/07/23 06:29:59;;;;;;;13.07;9.73;;;;;;;21.39;74.52;101231.28;5023963;28;20049;-46
2021/07/23 06:32:28;;;;;;;18.30;11.90;;;;;;;21.48;74.43;101228.00;5027110;28;20056;-45
2021/07/23 06:34:57;;;;;;;16.63;12.05;;;;;;;21.57;74.10;101240.47;5028509;28;20050;-43
2021/07/23 06:37:25;;;;;;;20.17;12.70;;;;;;;21.64;74.21;101225.53;5027839;28;20131;-42
2021/07/23 06:39:52;;;;;;;15.95;11.43;;;;;;;21.66;74.29;101223.09;5027477;28;20053;-43
2021/07/23 06:42:23;;;;;;;19.23;12.27;;;;;;;21.70;74.50;101235.16;5028149;28;20062;-42
2021/07/23 06:44:51;;;;;;;18.77;11.73;;;;;;;21.77;74.35;101230.31;5019989;28;20049;-47
2021/07/23 06:47:19;;;;;;;25.45;10.60;;;;;;;21.83;74.15;101239.13;5027028;28;20069;-50
2021/07/23 06:49:51;;;;;;;21.58;14.50;;;;;;;21.85;74.20;101231.88;5025051;28;20053;-48
2021/07/23 06:52:19;;;;;;;21.75;12.88;;;;;;;21.91;74.10;101232.28;5021865;28;20573;-46
2021/07/23 06:54:49;;;;;;;;;;;;;;;21.87;74.63;101231.47;5028818;28;20453;-47
2021/07/23 06:57:16;;;;;;;25.75;15.50;;;;;;;21.90;74.64;101222.22;5027980;28;20596;-56
2021/07/23 06:59:43;;;;;;;28.65;15.40;;;;;;;21.98;74.41;101223.78;5022456;28;20057;-46
2021/07/23 07:02:09;;;;;;;30.92;18.15;;;;;;;22.05;74.36;101215.28;5018755;28;20491;-45
2021/07/23 07:04:37;;;;;;;31.02;18.63;;;;;;;22.10;74.45;101222.50;5026439;28;20053;-46
2021/07/23 07:07:07;;;;;;;36.13;21.45;;;;;;;22.17;74.60;101211.97;5041665;28;20057;-49
2021/07/23 07:09:36;;;;;;;32.55;19.83;;;;;;;22.24;74.46;101217.56;5027361;28;20085;-45
2021/07/23 07:12:03;;;;;;;34.83;22.42;;;;;;;22.32;74.53;101219.13;5026952;28;20510;-48
2021/07/23 07:14:30;;;;;;;32.78;20.70;;;;;;;22.40;74.50;101214.22;5026367;28;20092;-47
2021/07/23 07:16:57;;;;;;;33.72;19.95;;;;;;;22.48;74.33;101223.47;5027584;28;20061;-46
2021/07/23 07:19:24;;;;;;;35.67;20.85;;;;;;;22.61;74.31;101216.09;5027266;28;20088;-44
2021/07/23 07:21:50;;;;;;;34.35;22.95;;;;;;;22.71;73.98;101212.41;5026409;28;20049;-45
2021/07/23 07:24:19;;;;;;;45.20;23.55;;;;;;;22.75;74.18;101211.16;5027903;28;20045;-49
2021/07/23 07:26:47;;;;;;;38.20;22.27;;;;;;;22.79;73.99;101200.66;5024375;28;20509;-45
2021/07/23 07:29:15;;;;;;;39.53;23.58;;;;;;;22.80;73.94;101210.69;5016674;28;20096;-49
2021/07/23 07:31:42;;;;;;;40.65;24.15;;;;;;;22.81;73.78;101208.69;5024698;28;20041;-45
2021/07/23 07:34:09;;;;;;;37.25;23.30;;;;;;;22.86;73.55;101205.41;5011154;28;20049;-44
2021/07/23 07:36:36;;;;;;;46.15;26.90;;;;;;;22.93;73.94;101214.59;5020971;28;20564;-47
2021/07/23 07:39:04;;;;;;;43.92;25.17;;;;;;;23.01;73.60;101202.03;5025483;28;20057;-45
2021/07/23 07:41:31;;;;;;;43.45;25.42;;;;;;;23.05;73.41;101199.16;5027024;28;20069;-45
2021/07/23 07:43:58;;;;;;;42.42;25.67;;;;;;;23.10;73.55;101212.03;5024394;28;20052;-48
2021/07/23 07:46:25;;;;;;;45.03;28.02;;;;;;;23.15;73.29;101203.91;5026432;28;20060;-52
2021/07/23 07:48:52;;;;;;;39.20;23.52;;;;;;;23.15;72.94;101205.91;5026496;28;20083;-46
2021/07/23 07:51:19;;;;;;;39.10;25.70;;;;;;;23.14;72.96;101202.28;5023391;28;20514;-46
2021/07/23 07:53:45;;;;;;;44.55;26.70;;;;;;;23.16;72.95;101196.22;5011627;28;20058;-46
2021/07/23 07:56:13;;;;;;;42.22;25.70;;;;;;;23.18;73.15;101193.78;5018580;28;20406;-47
2021/07/23 07:58:40;;;;;;;44.13;25.73;;;;;;;23.21;72.84;101196.56;5017767;28;20453;-45
2021/07/23 08:01:08;;;;;;;49.95;26.83;;;;;;;23.25;72.64;101193.69;5033203;28;20065;-47
2021/07/23 08:03:36;;;;;;;38.70;24.05;;;;;;;23.24;72.50;101197.75;5026760;28;20060;-46
2021/07/23 08:06:08;;;;;;;37.13;23.83;;;;;;;23.20;72.34;101180.84;5025892;28;20068;-48
2021/07/23 08:08:35;;;;;;;43.50;24.02;;;;;;;23.28;72.60;101192.84;5025668;28;20441;-49
2021/07/23 08:11:02;;;;;;;41.05;24.80;;;;;;;23.45;72.40;101187.03;5040423;28;20049;-47
2021/07/23 08:13:31;;;;;;;40.03;23.95;;;;;;;23.56;72.03;101192.56;5023373;28;20053;-48
2021/07/23 08:15:58;;;;;;;47.83;26.20;;;;;;;23.53;71.57;101188.56;5031625;28;20140;-47
2021/07/23 08:18:25;;;;;;;39.10;22.48;;;;;;;23.48;71.61;101185.41;5025238;28;20060;-45
2021/07/23 08:20:52;;;;;;;43.15;26.00;;;;;;;23.60;71.58;101194.13;5024714;28;20049;-44
2021/07/23 08:23:22;;;;;;;30.55;19.63;;;;;;;23.88;71.42;101194.97;5030127;28;20136;-49
2021/07/23 08:25:49;;;;;;;28.02;18.58;;;;;;;24.09;70.87;101186.19;5036694;28;20136;-49
2021/07/23 08:28:16;;;;;;;27.65;18.55;;;;;;;24.23;69.93;101191.63;5011842;28;20064;-53
2021/07/23 08:30:43;;;;;;;26.52;18.67;;;;;;;24.27;69.19;101188.75;5002255;28;20136;-48
2021/07/23 08:33:10;;;;;;;27.02;17.65;;;;;;;24.27;69.04;101192.38;4991525;28;20058;-51
2021/07/23 08:35:39;;;;;;;29.55;17.90;;;;;;;24.33;68.43;101187.81;4990479;28;20057;-45
2021/07/23 08:38:06;;;;;;;22.52;15.50;;;;;;;24.36;68.40;101189.78;5008595;28;20575;-49
2021/07/23 08:40:33;;;;;;;24.38;16.50;;;;;;;24.40;68.59;101184.09;5006293;28;20048;-49
2021/07/23 08:43:02;;;;;;;26.30;17.58;;;;;;;24.59;68.24;101183.38;5008602;28;20160;-45
2021/07/23 08:45:29;;;;;;;24.92;17.17;;;;;;;24.92;68.00;101182.38;5006312;28;20165;-47
2021/07/23 08:47:56;;;;;;;30.38;17.13;;;;;;;25.33;67.30;101182.00;5005257;28;20909;-51
2021/07/23 08:50:24;;;;;;;27.70;16.30;;;;;;;25.78;66.24;101183.09;5009656;28;20356;-47
2021/07/23 08:52:54;;;;;;;21.92;15.70;;;;;;;26.34;65.43;101181.00;4988097;28;20052;-50
2021/07/23 08:55:22;;;;;;;21.48;15.77;;;;;;;26.87;64.03;101188.22;5007471;28;20199;-49
2021/07/23 08:57:50;;;;;;;22.45;14.18;;;;;;;27.29;62.95;101191.91;5008249;28;20499;-47
2021/07/23 09:00:19;;;;;;;23.33;14.05;;;;;;;27.60;61.74;101186.56;5008600;28;20058;-49
2021/07/23 09:02:59;;;;;;;23.83;14.98;;;;;;;27.77;59.19;101168.19;5008335;28;20054;-49
2021/07/23 09:05:36;;;;;;;16.88;12.88;;;;;;;27.81;59.24;101174.53;4980161;28;20049;-47
2021/07/23 09:08:16;;;;;;;19.48;12.80;;;;;;;27.96;57.68;101167.16;5001138;28;20108;-47
2021/07/23 09:10:45;;;;;;;19.55;11.93;;;;;;;28.09;57.86;101165.13;5003438;28;20075;-50
2021/07/23 09:13:21;;;;;;;19.23;11.82;;;;;;;28.08;56.29;101169.25;5005927;28;20137;-51
2021/07/23 09:15:48;;;;;;;17.80;12.45;;;;;;;28.08;56.58;101166.41;5003897;28;20123;-48
2021/07/23 09:18:29;;;;;;;19.27;13.48;;;;;;;28.00;56.11;101159.31;5005975;28;20062;-47
2021/07/23 09:20:58;;;;;;;22.25;12.20;;;;;;;28.03;56.30;101149.09;5000595;28;20050;-48
2021/07/23 09:23:35;;;;;;;23.48;11.88;;;;;;;28.20;55.87;101148.50;5004717;28;20140;-45
2021/07/23 09:26:08;;;;;;;17.80;11.45;;;;;;;28.31;54.72;101151.00;4988075;28;20857;-50
2021/07/23 09:28:37;;;;;;;18.38;11.43;;;;;;;28.35;55.02;101146.81;5025429;28;20052;-49
2021/07/23 09:31:06;;;;;;;19.30;13.85;;;;;;;28.53;53.86;101145.38;5024225;28;20049;-49
2021/07/23 09:33:41;;;;;;;19.55;13.55;;;;;;;28.62;52.50;101145.53;5025137;28;20453;-53
2021/07/23 09:36:09;;;;;;;19.73;11.40;;;;;;;28.78;52.91;101145.38;5026041;28;20064;-49
2021/07/23 09:38:41;;;;;;;18.40;10.77;;;;;;;28.96;52.72;101140.59;5025693;28;20132;-52
2021/07/23 09:41:21;;;;;;;18.25;11.57;;;;;;;29.06;52.34;101132.94;5025349;28;20262;-48
2021/07/23 09:44:07;;;;;;;20.48;12.35;;;;;;;29.26;51.42;101136.28;5023316;28;20490;-46
2021/07/23 09:46:35;;;;;;;16.95;11.38;;;;;;;29.36;51.46;101131.44;5024975;28;20069;-46
2021/07/23 09:49:20;;;;;;;19.48;11.82;;;;;;;29.49;50.27;101123.59;5024855;28;20057;-50
2021/07/23 09:51:48;;;;;;;18.60;11.90;;;;;;;29.50;50.72;101123.13;5023437;28;20289;-51
2021/07/23 09:54:15;;;;;;;16.80;12.57;;;;;;;29.53;50.35;101127.91;5025521;28;20049;-50
2021/07/23 09:56:43;;;;;;;20.40;12.15;;;;;;;29.46;49.88;101125.34;5040647;28;20037;-45
2021/07/23 09:59:33;;;;;;;18.92;11.25;;;;;;;29.12;49.95;101121.72;5024944;28;20053;-47
2021/07/23 10:02:01;;;;;;;17.90;10.63;;;;;;;28.78;50.62;101117.63;5023730;28;20045;-48
2021/07/23 10:04:33;;;;;;;17.35;11.48;;;;;;;28.58;50.22;101117.13;5023821;28;20042;-47
2021/07/23 10:07:07;;;;;;;15.38;12.15;;;;;;;28.43;50.55;101112.38;5027886;28;20153;-46
2021/07/23 10:09:37;;;;;;;19.95;12.95;;;;;;;28.28;51.07;101112.84;5028580;28;20060;-48
2021/07/23 10:12:09;;;;;;;16.70;11.87;;;;;;;28.26;50.96;101115.38;5028408;28;20099;-49
2021/07/23 10:14:39;;;;;;;21.08;11.48;;;;;;;28.45;51.19;101109.84;5028522;28;20053;-47
2021/07/23 10:17:07;;;;;;;19.52;11.00;;;;;;;28.63;50.41;101115.75;5027944;28;20049;-47
2021/07/23 10:19:36;;;;;;;17.65;10.48;;;;;;;28.77;50.62;101115.25;5029335;28;20121;-47
2021/07/23 10:22:04;;;;;;;18.35;10.88;;;;;;;29.02;50.30;101109.44;5008320;28;20315;-49
2021/07/23 10:24:35;;;;;;;19.85;11.25;;;;;;;29.27;49.69;101109.34;5028569;28;20057;-49
2021/07/23 10:27:09;;;;;;;16.55;10.80;;;;;;;29.45;48.55;101115.19;5027743;28;20152;-47
2021/07/23 10:29:45;;;;;;;18.63;11.68;;;;;;;29.42;48.45;101098.97;5028988;28;20049;-46
2021/07/23 10:32:24;;;;;;;15.98;11.15;;;;;;;29.25;47.95;101103.31;5027534;28;20045;-46
2021/07/23 10:35:12;;;;;;;16.55;10.95;;;;;;;29.25;48.77;101093.97;5028062;28;20119;-47
2021/07/23 10:37:43;;;;;;;18.30;10.32;;;;;;;29.27;48.42;101097.94;5025793;28;20240;-48
2021/07/23 10:40:10;;;;;;;13.18;9.98;;;;;;;29.34;48.37;101091.97;5010762;28;20058;-46
2021/07/23 10:42:42;;;;;;;20.13;10.93;;;;;;;29.36;48.46;101092.28;5028583;28;20570;-50
2021/07/23 10:45:16;;;;;;;17.40;12.35;;;;;;;29.14;48.30;101087.84;5034526;28;20143;-48
2021/07/23 10:47:50;;;;;;;16.58;11.10;;;;;;;29.07;48.27;101086.03;5012995;28;20518;-48
2021/07/23 10:50:20;;;;;;;15.55;10.25;;;;;;;28.93;48.11;101093.09;5027540;28;20594;-46
2021/07/23 10:52:46;;;;;;;17.75;11.82;;;;;;;28.90;48.34;101091.16;5027399;28;20053;-47
2021/07/23 10:55:21;;;;;;;25.08;12.05;;;;;;;28.75;48.41;101090.06;5027506;28;20049;-49
2021/07/23 10:58:10;;;;;;;16.25;11.35;;;;;;;28.71;48.78;101094.31;5027455;28;20088;-45
2021/07/23 11:00:51;;;;;;;18.42;10.98;;;;;;;28.64;49.41;101080.31;5025921;28;20490;-48
2021/07/23 11:03:45;;;;;;;16.90;11.52;;;;;;;28.65;49.56;101084.75;5020810;28;20057;-49
2021/07/23 11:06:22;;;;;;;18.17;10.13;;;;;;;28.63;49.54;101076.66;5027450;28;20127;-47
2021/07/23 11:09:06;;;;;;;20.50;10.40;;;;;;;28.54;49.55;101090.78;5027203;28;20057;-46
2021/07/23 11:11:33;;;;;;;19.85;10.45;;;;;;;28.55;49.48;101088.75;5023161;28;20157;-48
2021/07/23 11:14:14;;;;;;;18.88;10.00;;;;;;;28.63;49.39;101087.28;5026370;28;20045;-47
2021/07/23 11:16:41;;;;;;;;;;;;;;;28.61;49.72;101089.75;5021467;28;20057;-50